Nearby METAR Reports

This page may be slow to load as it queries the National Weather Service for data.

KBIS - Bismarck, North Dakota, USA
Distance from station: S 10mi, 15km
Updated: Sat, 19-Sep-2020 1:52pm CDT
Clear
Clear
 Wind from ESE
Wind: ESE 14 mph , 22 km/h
Temperature: 72°F , 22°C
Dew Point: 52°F , 11°C
Humidity: 50%
Barometer: 29.91 inHg , 1012.9 hPa
Clouds: Clear
Visibility: 10 miles , 16 km
2020/09/19 18:52 KBIS 191852Z 11012KT 10SM CLR 22/11 A2991 RMK AO2 SLP128 T02170111
KDIK - Dickinson, North Dakota, USA
Distance from station: W 95mi, 154km
Updated: Sat, 19-Sep-2020 1:56pm CDT
Clear
Clear
 Wind from E
Wind: E 14 mph , 22 km/h
Temperature: 68°F , 20°C
Dew Point: 54°F , 12°C
Humidity: 60%
Barometer: 29.87 inHg , 1011.5 hPa
Clouds: Clear
Visibility: 10 miles , 16 km
2020/09/19 18:56 KDIK 191856Z AUTO 10012KT 10SM CLR 20/12 A2987 RMK AO2 SLP107 T02000117
 
KXWA - Williston, North Dakota, USA
Distance from station: NNW 2mi, 2km
Updated: Sat, 19-Sep-2020 1:51pm CDT
Clear
Clear
 Wind from ESE
Wind: ESE 15 mph , 24 km/h
Temperature: 70°F , 21°C
Dew Point: 52°F , 11°C
Humidity: 53%
Barometer: 29.87 inHg , 1011.5 hPa
Clouds: Clear
Visibility: 10 miles , 16 km
2020/09/19 18:51 KXWA 191851Z AUTO 12013KT 10SM CLR 21/11 A2987 RMK AO2 PK WND 14028/1752 SLP959 T02110111
KFAR - Fargo, North Dakota, USA
Distance from station: NNW 4mi, 7km
Updated: Sat, 19-Sep-2020 1:53pm CDT
Clear
Clear
 Wind from SE
Wind: SE 12 mph , 19 km/h
Temperature: 75°F , 24°C
Dew Point: 52°F , 11°C
Humidity: 44%
Barometer: 30.01 inHg , 1016.3 hPa
Clouds: Clear
Visibility: 10 miles , 16 km
2020/09/19 18:53 KFAR 191853Z 13010KT 10SM CLR 24/11 A3001 RMK AO2 SLP162 T02390106
 
KGFK - Grand Forks, North Dakota, USA
Distance from station: NNW 76mi, 123km
Updated: Sat, 19-Sep-2020 1:53pm CDT
Clear
Clear
 Wind from SE
Wind: SE 6 mph , 9 km/h
Temperature: 73°F , 23°C
Dew Point: 46°F , 8°C
Humidity: 38%
Barometer: 30.00 inHg , 1015.9 hPa
Clouds: Clear
Visibility: 10 miles , 16 km
2020/09/19 18:53 KGFK 191853Z 14005KT 10SM CLR 23/08 A3000 RMK AO2 SLP159 T02330083
KMOT - Minot, North Dakota, USA
Distance from station: E 109mi, 175km
Updated: Sat, 19-Sep-2020 1:54pm CDT
Clear
Clear
 Wind from ESE
Wind: ESE 16 mph , 26 km/h
Temperature: 75°F , 24°C
Dew Point: 52°F , 11°C
Humidity: 44%
Barometer: 29.91 inHg , 1012.9 hPa
Clouds: Clear
Visibility: 10 miles , 16 km
2020/09/19 18:54 KMOT 191854Z 11014KT 10SM CLR 24/11 A2991 RMK AO2 SLP126 T02390106